createdAt,value
2022-11-06T00:01:34.702Z,9.00
2022-11-06T00:06:50.835Z,9.00
2022-11-06T00:11:53.832Z,9.20
2022-11-06T00:16:56.683Z,9.20
2022-11-06T00:22:01.063Z,9.20
2022-11-06T00:27:03.923Z,9.10
2022-11-06T00:32:06.806Z,9.10
2022-11-06T00:37:11.037Z,9.10
2022-11-06T00:42:13.942Z,8.90
2022-11-06T00:47:16.824Z,8.90
2022-11-06T00:52:21.050Z,8.50
2022-11-06T00:57:23.924Z,8.10
2022-11-06T01:02:26.938Z,8.20
2022-11-06T01:07:31.249Z,8.10
2022-11-06T01:12:34.514Z,8.10
2022-11-06T01:17:37.432Z,8.30
2022-11-06T01:22:41.649Z,8.30
2022-11-06T01:27:44.499Z,8.30
2022-11-06T01:32:47.382Z,8.30
2022-11-06T01:37:51.592Z,8.30
2022-11-06T01:42:54.582Z,8.20
2022-11-06T01:47:57.755Z,8.00
2022-11-06T01:53:02.499Z,8.10
2022-11-06T01:58:08.612Z,8.00
2022-11-06T02:03:13.596Z,7.90
2022-11-06T02:08:21.578Z,8.00
2022-11-06T02:13:34.868Z,8.00
2022-11-06T02:19:22.489Z,8.00
2022-11-06T02:25:03.710Z,8.00
2022-11-06T02:30:10.410Z,8.00
2022-11-06T02:35:21.312Z,7.90
2022-11-06T02:40:29.171Z,7.70
2022-11-06T02:45:40.192Z,7.20
2022-11-06T02:50:47.869Z,7.20
2022-11-06T02:55:53.549Z,7.20
2022-11-06T03:01:01.680Z,7.30
2022-11-06T03:06:10.771Z,7.50
2022-11-06T03:11:18.835Z,7.10
2022-11-06T03:16:32.096Z,7.50
2022-11-06T03:21:44.102Z,7.70
2022-11-06T03:26:49.815Z,7.60
2022-11-06T03:31:57.336Z,7.30
2022-11-06T03:37:05.226Z,7.30
2022-11-06T03:42:13.310Z,7.40
2022-11-06T03:47:27.646Z,7.30
2022-11-06T03:52:35.083Z,7.40
2022-11-06T03:57:43.892Z,7.70
2022-11-06T04:02:52.636Z,7.70
2022-11-06T04:08:14.596Z,7.70
2022-11-06T04:13:38.251Z,7.60
2022-11-06T04:18:42.619Z,7.00
2022-11-06T04:24:10.296Z,6.70
2022-11-06T04:29:22.848Z,6.90
2022-11-06T04:34:36.840Z,6.90
2022-11-06T04:39:47.325Z,7.00
2022-11-06T04:44:52.743Z,7.10
2022-11-06T04:50:01.144Z,6.90
2022-11-06T04:55:04.163Z,6.90
2022-11-06T05:00:08.440Z,6.80
2022-11-06T05:05:12.831Z,6.90
2022-11-06T05:10:15.819Z,6.80
2022-11-06T05:15:18.745Z,6.80
2022-11-06T05:20:23.095Z,6.80
2022-11-06T05:25:26.690Z,6.70
2022-11-06T05:30:29.786Z,6.70
2022-11-06T05:35:34.200Z,6.70
2022-11-06T05:40:37.096Z,6.60
2022-11-06T05:45:40.094Z,6.60
2022-11-06T05:50:44.366Z,6.50
2022-11-06T05:55:52.209Z,6.50
2022-11-06T06:00:56.033Z,6.70
2022-11-06T06:06:00.271Z,6.50
2022-11-06T06:11:07.282Z,6.50
2022-11-06T06:16:10.181Z,6.40
2022-11-06T06:21:14.460Z,6.40
2022-11-06T06:26:17.500Z,6.40
2022-11-06T06:31:20.410Z,6.50
2022-11-06T06:36:24.658Z,6.50
2022-11-06T06:41:27.563Z,6.60
2022-11-06T06:46:30.469Z,6.50
2022-11-06T06:51:34.887Z,6.50
2022-11-06T06:56:37.792Z,6.30
2022-11-06T07:01:40.923Z,6.30
2022-11-06T07:06:45.229Z,6.50
2022-11-06T07:11:48.117Z,6.60
2022-11-06T07:16:53.773Z,6.30
2022-11-06T07:21:58.333Z,6.20
2022-11-06T07:27:01.225Z,6.30
2022-11-06T07:32:04.332Z,6.40
2022-11-06T07:37:09.009Z,6.50
2022-11-06T07:42:11.959Z,6.40
2022-11-06T07:47:31.336Z,6.50
2022-11-06T07:52:35.622Z,6.60
2022-11-06T07:57:38.688Z,6.50
2022-11-06T08:02:41.699Z,6.40
2022-11-06T08:07:45.978Z,6.50
2022-11-06T08:12:48.886Z,6.70
2022-11-06T08:17:51.792Z,6.60
2022-11-06T08:22:59.706Z,6.70
2022-11-06T08:28:03.758Z,6.60
2022-11-06T08:33:09.270Z,7.00
2022-11-06T08:38:13.883Z,7.20
2022-11-06T08:43:17.128Z,7.30
2022-11-06T08:48:20.439Z,7.30
2022-11-06T08:53:24.747Z,7.50
2022-11-06T08:58:27.653Z,7.70
2022-11-06T09:03:30.567Z,7.80
2022-11-06T09:08:34.968Z,8.10
2022-11-06T09:13:37.888Z,8.20
2022-11-06T09:18:40.802Z,8.30
2022-11-06T09:23:46.079Z,8.40
2022-11-06T09:28:49.122Z,8.20
2022-11-06T09:33:52.095Z,8.40
2022-11-06T09:38:56.332Z,8.50
2022-11-06T09:44:19.083Z,8.50
2022-11-06T09:49:27.465Z,8.60
2022-11-06T09:54:37.293Z,8.80
2022-11-06T09:59:41.783Z,8.90
2022-11-06T10:04:51.958Z,8.80
2022-11-06T10:10:03.622Z,8.80
2022-11-06T10:15:18.512Z,8.90
2022-11-06T10:20:30.113Z,9.10
2022-11-06T10:25:57.922Z,9.20
2022-11-06T10:31:10.954Z,9.40
2022-11-06T10:36:16.761Z,9.30
2022-11-06T10:41:25.079Z,9.50
2022-11-06T10:46:34.727Z,9.50
2022-11-06T10:51:53.969Z,9.60
2022-11-06T10:57:16.345Z,9.60
2022-11-06T11:02:30.342Z,9.60
2022-11-06T11:07:35.445Z,9.70
2022-11-06T11:12:39.716Z,9.80
2022-11-06T11:17:43.718Z,9.70
2022-11-06T11:22:46.682Z,9.90
2022-11-06T11:27:51.026Z,10.10
2022-11-06T11:32:54.718Z,10.00
2022-11-06T11:38:11.730Z,10.00
2022-11-06T11:43:25.325Z,10.10
2022-11-06T11:48:28.554Z,10.30
2022-11-06T11:53:32.461Z,10.50
2022-11-06T11:58:39.022Z,10.60
2022-11-06T12:03:45.163Z,10.60
2022-11-06T12:08:51.090Z,10.80
2022-11-06T12:14:26.321Z,10.80
2022-11-06T12:19:33.348Z,10.70
2022-11-06T12:24:42.494Z,10.70
2022-11-06T12:29:51.224Z,10.60
2022-11-06T12:35:02.345Z,10.80
2022-11-06T12:40:22.198Z,10.80
2022-11-06T12:45:39.388Z,11.00
2022-11-06T12:50:46.607Z,11.00
2022-11-06T12:55:56.091Z,11.00
2022-11-06T13:01:09.217Z,11.00
2022-11-06T13:06:17.164Z,11.00
2022-11-06T13:11:31.479Z,11.00
2022-11-06T13:16:42.246Z,11.00
2022-11-06T13:22:13.180Z,11.20
2022-11-06T13:27:25.677Z,11.10
2022-11-06T13:32:32.766Z,11.00
2022-11-06T13:37:40.809Z,11.30
2022-11-06T13:42:49.207Z,11.10
2022-11-06T13:48:05.835Z,11.30
2022-11-06T13:53:18.437Z,11.30
2022-11-06T13:58:33.447Z,11.30
2022-11-06T14:04:03.940Z,11.40
2022-11-06T14:09:10.464Z,11.50
2022-11-06T14:14:15.700Z,11.60
2022-11-06T14:19:27.847Z,11.70
2022-11-06T14:24:34.259Z,11.70
2022-11-06T14:29:57.465Z,11.80
2022-11-06T14:35:50.575Z,11.50
2022-11-06T14:40:53.608Z,11.50
2022-11-06T14:46:00.342Z,11.70
2022-11-06T14:51:07.095Z,11.70
2022-11-06T14:56:11.742Z,11.80
2022-11-06T15:01:16.901Z,11.90
2022-11-06T15:06:39.933Z,11.90
2022-11-06T15:12:00.369Z,11.90
2022-11-06T15:17:06.773Z,12.00
2022-11-06T15:22:21.737Z,11.90
2022-11-06T15:27:29.238Z,11.90
2022-11-06T15:32:38.596Z,11.90
2022-11-06T15:37:45.413Z,11.90
2022-11-06T15:42:48.656Z,11.90
2022-11-06T15:47:56.678Z,11.90
2022-11-06T15:53:21.743Z,11.90
2022-11-06T15:58:31.512Z,11.70
2022-11-06T16:03:45.181Z,11.70
2022-11-06T16:08:51.671Z,11.40
2022-11-06T16:13:55.995Z,11.10
2022-11-06T16:19:06.276Z,11.30
2022-11-06T16:24:16.578Z,11.30
2022-11-06T16:29:22.420Z,11.30
2022-11-06T16:34:37.467Z,11.30
2022-11-06T16:39:49.901Z,11.20
2022-11-06T16:45:18.695Z,11.20
2022-11-06T16:50:44.152Z,11.40
2022-11-06T16:55:56.677Z,11.60
2022-11-06T17:01:02.395Z,11.60
2022-11-06T17:06:17.866Z,11.60
2022-11-06T17:11:23.237Z,11.60
2022-11-06T17:16:28.621Z,11.50
2022-11-06T17:21:32.533Z,11.40
2022-11-06T17:26:42.602Z,11.30
2022-11-06T17:31:45.553Z,11.30
2022-11-06T17:36:48.483Z,11.20
2022-11-06T17:41:53.576Z,11.20
2022-11-06T17:46:56.942Z,11.20
2022-11-06T17:52:00.909Z,11.10
2022-11-06T17:57:07.982Z,11.20
2022-11-06T18:02:14.325Z,11.20
2022-11-06T18:07:17.721Z,11.30
2022-11-06T18:12:25.358Z,11.40
2022-11-06T18:17:28.531Z,11.50
2022-11-06T18:22:35.383Z,11.50
2022-11-06T18:28:18.224Z,11.50
2022-11-06T18:33:48.782Z,11.60
2022-11-06T18:39:31.029Z,11.60
2022-11-06T18:44:41.380Z,11.60
2022-11-06T18:49:44.670Z,11.80
2022-11-06T18:54:48.197Z,11.80
2022-11-06T18:59:54.522Z,11.90
2022-11-06T19:04:57.601Z,12.00
2022-11-06T19:10:01.905Z,12.00
2022-11-06T19:15:07.400Z,12.00
2022-11-06T19:20:14.809Z,12.10
2022-11-06T19:25:18.549Z,12.20
2022-11-06T19:30:22.971Z,12.30
2022-11-06T19:35:26.073Z,12.30
2022-11-06T19:40:30.119Z,12.40
2022-11-06T19:45:35.483Z,12.40
2022-11-06T19:50:58.737Z,12.40
2022-11-06T19:56:04.710Z,12.50
2022-11-06T20:01:16.344Z,12.50
2022-11-06T20:06:20.485Z,12.60
2022-11-06T20:11:29.781Z,12.60
2022-11-06T20:16:34.462Z,12.70
2022-11-06T20:21:49.758Z,12.70
2022-11-06T20:26:52.857Z,12.80
2022-11-06T20:32:04.416Z,12.80
2022-11-06T20:37:07.599Z,12.90
2022-11-06T20:42:10.571Z,12.90
2022-11-06T20:47:14.859Z,13.00
2022-11-06T20:52:30.181Z,13.00
2022-11-06T20:57:33.150Z,13.00
2022-11-06T21:02:37.681Z,13.00
2022-11-06T21:07:40.849Z,13.00
2022-11-06T21:12:54.050Z,13.00
2022-11-06T21:17:58.385Z,13.10
2022-11-06T21:23:38.537Z,13.20
2022-11-06T21:28:43.338Z,13.20
2022-11-06T21:33:50.209Z,13.30
2022-11-06T21:38:54.238Z,13.40
2022-11-06T21:43:57.973Z,13.40
2022-11-06T21:49:02.276Z,13.50
2022-11-06T21:54:22.994Z,13.50
2022-11-06T21:59:28.356Z,13.50
2022-11-06T22:04:32.710Z,13.20
2022-11-06T22:09:35.640Z,13.10
2022-11-06T22:14:38.569Z,13.10
2022-11-06T22:19:42.909Z,13.10
2022-11-06T22:24:46.999Z,13.10
2022-11-06T22:29:49.927Z,13.10
2022-11-06T22:34:54.168Z,13.10
2022-11-06T22:39:57.167Z,13.20
2022-11-06T22:45:00.147Z,13.10
2022-11-06T22:50:04.865Z,13.10
2022-11-06T22:55:08.469Z,13.20
2022-11-06T23:00:14.216Z,13.20
2022-11-06T23:05:18.622Z,13.20
2022-11-06T23:10:28.764Z,13.20
2022-11-06T23:15:32.390Z,13.20
2022-11-06T23:20:36.752Z,13.20
2022-11-06T23:25:39.718Z,13.30
2022-11-06T23:30:42.689Z,13.30
2022-11-06T23:35:46.993Z,13.30
2022-11-06T23:40:49.950Z,13.40
2022-11-06T23:46:24.808Z,13.40
2022-11-06T23:51:29.119Z,13.50
2022-11-06T23:56:34.704Z,13.50
